sensor_id;sensor_type;location;lat;lon;timestamp;temperature;humidity
46356;DHT22;32066;49.474;11.106;2022-08-06T00:02:18;23.80;65.40
46356;DHT22;32066;49.474;11.106;2022-08-06T00:04:46;23.50;65.80
46356;DHT22;32066;49.474;11.106;2022-08-06T00:07:13;23.60;65.50
46356;DHT22;32066;49.474;11.106;2022-08-06T00:09:39;23.60;65.80
46356;DHT22;32066;49.474;11.106;2022-08-06T00:12:08;23.30;65.60
46356;DHT22;32066;49.474;11.106;2022-08-06T00:14:35;22.90;67.20
46356;DHT22;32066;49.474;11.106;2022-08-06T00:17:02;22.70;67.00
46356;DHT22;32066;49.474;11.106;2022-08-06T00:19:29;22.60;67.40
46356;DHT22;32066;49.474;11.106;2022-08-06T00:21:56;22.70;67.60
46356;DHT22;32066;49.474;11.106;2022-08-06T00:24:23;22.90;67.20
46356;DHT22;32066;49.474;11.106;2022-08-06T00:26:50;23.10;67.10
46356;DHT22;32066;49.474;11.106;2022-08-06T00:29:18;23.00;66.70
46356;DHT22;32066;49.474;11.106;2022-08-06T00:31:45;22.80;65.90
46356;DHT22;32066;49.474;11.106;2022-08-06T00:34:12;22.60;66.30
46356;DHT22;32066;49.474;11.106;2022-08-06T00:36:39;22.60;66.20
46356;DHT22;32066;49.474;11.106;2022-08-06T00:39:06;22.70;65.00
46356;DHT22;32066;49.474;11.106;2022-08-06T00:41:34;22.70;65.00
46356;DHT22;32066;49.474;11.106;2022-08-06T00:44:01;22.80;62.50
46356;DHT22;32066;49.474;11.106;2022-08-06T00:46:29;22.70;63.20
46356;DHT22;32066;49.474;11.106;2022-08-06T00:48:56;22.60;63.10
46356;DHT22;32066;49.474;11.106;2022-08-06T00:51:24;22.50;62.20
46356;DHT22;32066;49.474;11.106;2022-08-06T00:53:51;22.30;61.10
46356;DHT22;32066;49.474;11.106;2022-08-06T00:56:18;22.20;62.40
46356;DHT22;32066;49.474;11.106;2022-08-06T00:58:45;22.20;62.80
46356;DHT22;32066;49.474;11.106;2022-08-06T01:01:12;22.10;61.70
46356;DHT22;32066;49.474;11.106;2022-08-06T01:03:40;22.00;62.30
46356;DHT22;32066;49.474;11.106;2022-08-06T02:52:22;21.40;61.50
46356;DHT22;32066;49.474;11.106;2022-08-06T02:54:56;21.50;61.50
46356;DHT22;32066;49.474;11.106;2022-08-06T02:57:27;21.30;62.00
46356;DHT22;32066;49.474;11.106;2022-08-06T03:00:00;21.20;62.30
46356;DHT22;32066;49.474;11.106;2022-08-06T03:02:29;21.30;62.00
46356;DHT22;32066;49.474;11.106;2022-08-06T03:04:57;21.20;62.00
46356;DHT22;32066;49.474;11.106;2022-08-06T03:07:30;21.20;61.80
46356;DHT22;32066;49.474;11.106;2022-08-06T03:10:00;21.10;62.40
46356;DHT22;32066;49.474;11.106;2022-08-06T03:12:28;21.00;62.70
46356;DHT22;32066;49.474;11.106;2022-08-06T03:14:58;20.90;62.40
46356;DHT22;32066;49.474;11.106;2022-08-06T03:17:26;20.90;63.30
46356;DHT22;32066;49.474;11.106;2022-08-06T03:19:54;20.80;63.60
46356;DHT22;32066;49.474;11.106;2022-08-06T03:22:23;20.80;63.70
46356;DHT22;32066;49.474;11.106;2022-08-06T03:24:53;20.80;63.70
46356;DHT22;32066;49.474;11.106;2022-08-06T03:27:20;20.70;63.70
46356;DHT22;32066;49.474;11.106;2022-08-06T03:29:48;20.70;63.70
46356;DHT22;32066;49.474;11.106;2022-08-06T03:32:16;20.80;63.60
46356;DHT22;32066;49.474;11.106;2022-08-06T03:34:44;20.80;63.60
46356;DHT22;32066;49.474;11.106;2022-08-06T03:37:12;20.70;63.80
46356;DHT22;32066;49.474;11.106;2022-08-06T03:39:41;20.70;63.90
46356;DHT22;32066;49.474;11.106;2022-08-06T03:42:09;20.70;63.50
46356;DHT22;32066;49.474;11.106;2022-08-06T03:44:36;20.70;63.70
46356;DHT22;32066;49.474;11.106;2022-08-06T03:47:06;20.70;64.00
46356;DHT22;32066;49.474;11.106;2022-08-06T03:49:38;20.80;63.40
46356;DHT22;32066;49.474;11.106;2022-08-06T03:52:07;20.80;63.10
46356;DHT22;32066;49.474;11.106;2022-08-06T03:54:38;20.80;62.90
46356;DHT22;32066;49.474;11.106;2022-08-06T03:57:11;20.90;62.90
46356;DHT22;32066;49.474;11.106;2022-08-06T03:59:41;20.80;63.70
46356;DHT22;32066;49.474;11.106;2022-08-06T04:02:09;20.80;63.00
46356;DHT22;32066;49.474;11.106;2022-08-06T04:04:37;20.80;63.60
46356;DHT22;32066;49.474;11.106;2022-08-06T04:07:05;20.70;63.40
46356;DHT22;32066;49.474;11.106;2022-08-06T04:09:34;20.70;63.80
46356;DHT22;32066;49.474;11.106;2022-08-06T04:12:02;20.70;63.60
46356;DHT22;32066;49.474;11.106;2022-08-06T04:14:31;20.70;63.70
46356;DHT22;32066;49.474;11.106;2022-08-06T04:16:58;20.70;63.70
46356;DHT22;32066;49.474;11.106;2022-08-06T04:19:27;20.60;63.90
46356;DHT22;32066;49.474;11.106;2022-08-06T04:21:56;20.60;63.90
46356;DHT22;32066;49.474;11.106;2022-08-06T04:24:23;20.60;64.40
46356;DHT22;32066;49.474;11.106;2022-08-06T04:26:52;20.50;63.90
46356;DHT22;32066;49.474;11.106;2022-08-06T04:29:21;20.50;64.50
46356;DHT22;32066;49.474;11.106;2022-08-06T04:31:50;20.40;64.60
46356;DHT22;32066;49.474;11.106;2022-08-06T04:34:21;20.50;64.30
46356;DHT22;32066;49.474;11.106;2022-08-06T04:36:50;20.50;63.90
46356;DHT22;32066;49.474;11.106;2022-08-06T04:39:17;20.50;63.70
46356;DHT22;32066;49.474;11.106;2022-08-06T04:41:45;20.60;63.50
46356;DHT22;32066;49.474;11.106;2022-08-06T04:44:12;20.60;63.30
46356;DHT22;32066;49.474;11.106;2022-08-06T04:46:40;20.50;63.40
46356;DHT22;32066;49.474;11.106;2022-08-06T04:49:09;20.50;63.90
46356;DHT22;32066;49.474;11.106;2022-08-06T04:51:37;20.50;63.80
46356;DHT22;32066;49.474;11.106;2022-08-06T04:54:04;20.50;63.60
46356;DHT22;32066;49.474;11.106;2022-08-06T04:56:32;20.60;63.30
46356;DHT22;32066;49.474;11.106;2022-08-06T04:58:58;20.60;63.60
46356;DHT22;32066;49.474;11.106;2022-08-06T05:01:25;20.50;63.30
46356;DHT22;32066;49.474;11.106;2022-08-06T05:03:52;20.50;63.60
46356;DHT22;32066;49.474;11.106;2022-08-06T05:06:24;20.50;63.50
46356;DHT22;32066;49.474;11.106;2022-08-06T05:08:55;20.50;63.70
46356;DHT22;32066;49.474;11.106;2022-08-06T05:11:28;20.50;64.10
46356;DHT22;32066;49.474;11.106;2022-08-06T05:13:58;20.40;64.30
46356;DHT22;32066;49.474;11.106;2022-08-06T05:16:32;20.50;63.80
46356;DHT22;32066;49.474;11.106;2022-08-06T05:19:02;20.40;63.70
46356;DHT22;32066;49.474;11.106;2022-08-06T05:21:33;20.50;63.50
46356;DHT22;32066;49.474;11.106;2022-08-06T05:24:02;20.50;63.60
46356;DHT22;32066;49.474;11.106;2022-08-06T05:26:30;20.40;63.20
46356;DHT22;32066;49.474;11.106;2022-08-06T05:28:57;20.40;63.60
46356;DHT22;32066;49.474;11.106;2022-08-06T05:31:32;20.40;63.40
46356;DHT22;32066;49.474;11.106;2022-08-06T05:34:00;20.40;63.20
46356;DHT22;32066;49.474;11.106;2022-08-06T05:36:27;20.30;63.70
46356;DHT22;32066;49.474;11.106;2022-08-06T05:38:56;20.20;63.70
46356;DHT22;32066;49.474;11.106;2022-08-06T05:41:22;20.20;63.30
46356;DHT22;32066;49.474;11.106;2022-08-06T05:43:49;20.20;63.40
46356;DHT22;32066;49.474;11.106;2022-08-06T05:46:18;20.30;63.10
46356;DHT22;32066;49.474;11.106;2022-08-06T05:48:53;20.40;62.70
46356;DHT22;32066;49.474;11.106;2022-08-06T05:51:32;20.40;63.20
46356;DHT22;32066;49.474;11.106;2022-08-06T05:54:05;20.40;62.50
46356;DHT22;32066;49.474;11.106;2022-08-06T05:56:40;20.40;62.30
46356;DHT22;32066;49.474;11.106;2022-08-06T05:59:12;20.40;61.60
46356;DHT22;32066;49.474;11.106;2022-08-06T06:01:43;20.50;61.00
46356;DHT22;32066;49.474;11.106;2022-08-06T06:04:12;20.50;61.40
46356;DHT22;32066;49.474;11.106;2022-08-06T06:06:40;20.60;59.90
46356;DHT22;32066;49.474;11.106;2022-08-06T06:09:08;20.50;59.10
46356;DHT22;32066;49.474;11.106;2022-08-06T06:11:36;20.60;59.30
46356;DHT22;32066;49.474;11.106;2022-08-06T06:14:04;20.60;58.00
46356;DHT22;32066;49.474;11.106;2022-08-06T06:16:40;20.50;57.70
46356;DHT22;32066;49.474;11.106;2022-08-06T06:19:15;20.70;58.00
46356;DHT22;32066;49.474;11.106;2022-08-06T06:21:51;20.70;57.30
46356;DHT22;32066;49.474;11.106;2022-08-06T06:24:26;20.80;55.40
46356;DHT22;32066;49.474;11.106;2022-08-06T06:26:59;20.80;55.00
46356;DHT22;32066;49.474;11.106;2022-08-06T06:29:40;20.80;55.00
46356;DHT22;32066;49.474;11.106;2022-08-06T06:32:15;20.60;55.20
46356;DHT22;32066;49.474;11.106;2022-08-06T06:34:48;20.60;54.70
46356;DHT22;32066;49.474;11.106;2022-08-06T06:37:22;20.40;55.60
46356;DHT22;32066;49.474;11.106;2022-08-06T06:40:06;20.60;54.50
46356;DHT22;32066;49.474;11.106;2022-08-06T06:42:40;20.70;53.50
46356;DHT22;32066;49.474;11.106;2022-08-06T06:45:14;20.70;53.10
46356;DHT22;32066;49.474;11.106;2022-08-06T06:47:47;20.70;52.80
46356;DHT22;32066;49.474;11.106;2022-08-06T06:50:20;20.50;53.20
46356;DHT22;32066;49.474;11.106;2022-08-06T06:52:50;20.60;53.50
46356;DHT22;32066;49.474;11.106;2022-08-06T06:55:22;20.70;52.60
46356;DHT22;32066;49.474;11.106;2022-08-06T06:57:54;20.90;52.10
46356;DHT22;32066;49.474;11.106;2022-08-06T07:00:23;20.90;51.30
46356;DHT22;32066;49.474;11.106;2022-08-06T07:02:52;21.20;57.70
46356;DHT22;32066;49.474;11.106;2022-08-06T07:05:20;21.70;56.20
46356;DHT22;32066;49.474;11.106;2022-08-06T07:07:48;22.20;54.80
46356;DHT22;32066;49.474;11.106;2022-08-06T07:10:19;22.30;52.10
46356;DHT22;32066;49.474;11.106;2022-08-06T07:12:47;22.70;52.80
46356;DHT22;32066;49.474;11.106;2022-08-06T07:15:15;22.80;49.90
46356;DHT22;32066;49.474;11.106;2022-08-06T07:17:44;22.80;50.40
46356;DHT22;32066;49.474;11.106;2022-08-06T07:20:13;23.00;49.80
46356;DHT22;32066;49.474;11.106;2022-08-06T07:22:42;22.50;49.60
46356;DHT22;32066;49.474;11.106;2022-08-06T07:25:12;22.30;50.60
46356;DHT22;32066;49.474;11.106;2022-08-06T07:27:45;22.50;51.50
46356;DHT22;32066;49.474;11.106;2022-08-06T07:30:15;22.80;51.10
46356;DHT22;32066;49.474;11.106;2022-08-06T07:32:43;22.30;46.90
46356;DHT22;32066;49.474;11.106;2022-08-06T07:35:11;22.10;51.90
46356;DHT22;32066;49.474;11.106;2022-08-06T07:37:41;21.80;47.50
46356;DHT22;32066;49.474;11.106;2022-08-06T07:40:13;21.60;48.40
46356;DHT22;32066;49.474;11.106;2022-08-06T07:42:45;21.40;48.90
46356;DHT22;32066;49.474;11.106;2022-08-06T07:45:14;21.40;49.90
46356;DHT22;32066;49.474;11.106;2022-08-06T07:47:42;21.50;49.30
46356;DHT22;32066;49.474;11.106;2022-08-06T07:50:12;21.60;48.70
46356;DHT22;32066;49.474;11.106;2022-08-06T07:52:40;21.80;49.80
46356;DHT22;32066;49.474;11.106;2022-08-06T07:55:08;21.70;48.50
46356;DHT22;32066;49.474;11.106;2022-08-06T07:57:37;21.60;49.00
46356;DHT22;32066;49.474;11.106;2022-08-06T08:00:08;21.50;48.60
46356;DHT22;32066;49.474;11.106;2022-08-06T08:02:38;21.50;48.40
46356;DHT22;32066;49.474;11.106;2022-08-06T08:05:06;21.70;49.80
46356;DHT22;32066;49.474;11.106;2022-08-06T08:07:51;21.80;49.50
46356;DHT22;32066;49.474;11.106;2022-08-06T08:10:19;21.70;48.20
46356;DHT22;32066;49.474;11.106;2022-08-06T08:12:46;21.60;48.20
46356;DHT22;32066;49.474;11.106;2022-08-06T08:15:15;21.90;51.80
46356;DHT22;32066;49.474;11.106;2022-08-06T08:17:42;21.80;48.30
46356;DHT22;32066;49.474;11.106;2022-08-06T08:20:10;21.80;48.30
46356;DHT22;32066;49.474;11.106;2022-08-06T08:22:38;21.70;49.00
46356;DHT22;32066;49.474;11.106;2022-08-06T08:25:06;21.90;48.80
46356;DHT22;32066;49.474;11.106;2022-08-06T08:27:34;21.90;47.90
46356;DHT22;32066;49.474;11.106;2022-08-06T08:30:01;22.00;47.90
46356;DHT22;32066;49.474;11.106;2022-08-06T08:32:29;21.80;47.50
46356;DHT22;32066;49.474;11.106;2022-08-06T08:34:56;21.70;48.30
46356;DHT22;32066;49.474;11.106;2022-08-06T08:37:23;22.00;48.20
46356;DHT22;32066;49.474;11.106;2022-08-06T08:39:50;22.20;48.00
46356;DHT22;32066;49.474;11.106;2022-08-06T08:42:18;22.30;46.00
46356;DHT22;32066;49.474;11.106;2022-08-06T08:44:46;22.30;48.10
46356;DHT22;32066;49.474;11.106;2022-08-06T08:47:16;22.50;46.10
46356;DHT22;32066;49.474;11.106;2022-08-06T08:49:50;22.60;47.10
46356;DHT22;32066;49.474;11.106;2022-08-06T08:52:25;22.70;47.10
46356;DHT22;32066;49.474;11.106;2022-08-06T08:54:58;22.80;46.70
46356;DHT22;32066;49.474;11.106;2022-08-06T08:57:27;22.70;46.40
46356;DHT22;32066;49.474;11.106;2022-08-06T08:59:54;22.80;45.30
46356;DHT22;32066;49.474;11.106;2022-08-06T09:02:23;22.80;45.30
46356;DHT22;32066;49.474;11.106;2022-08-06T09:04:53;23.00;47.30
46356;DHT22;32066;49.474;11.106;2022-08-06T09:07:20;23.10;44.50
46356;DHT22;32066;49.474;11.106;2022-08-06T09:09:47;23.10;45.70
46356;DHT22;32066;49.474;11.106;2022-08-06T09:12:14;23.20;45.10
46356;DHT22;32066;49.474;11.106;2022-08-06T09:14:41;23.20;45.30
46356;DHT22;32066;49.474;11.106;2022-08-06T09:17:09;23.40;45.60
46356;DHT22;32066;49.474;11.106;2022-08-06T09:19:36;23.50;44.30
46356;DHT22;32066;49.474;11.106;2022-08-06T09:22:05;23.40;44.10
46356;DHT22;32066;49.474;11.106;2022-08-06T09:24:32;23.30;43.60
46356;DHT22;32066;49.474;11.106;2022-08-06T09:27:04;23.50;44.00
46356;DHT22;32066;49.474;11.106;2022-08-06T09:29:31;23.40;43.50
46356;DHT22;32066;49.474;11.106;2022-08-06T09:31:58;23.50;43.30
46356;DHT22;32066;49.474;11.106;2022-08-06T09:34:31;23.40;43.90
46356;DHT22;32066;49.474;11.106;2022-08-06T09:36:59;23.60;43.70
46356;DHT22;32066;49.474;11.106;2022-08-06T09:39:35;23.80;43.20
46356;DHT22;32066;49.474;11.106;2022-08-06T09:42:05;23.80;44.40
46356;DHT22;32066;49.474;11.106;2022-08-06T09:44:32;23.80;43.00
46356;DHT22;32066;49.474;11.106;2022-08-06T09:46:59;24.00;43.00
46356;DHT22;32066;49.474;11.106;2022-08-06T09:49:43;24.00;42.50
46356;DHT22;32066;49.474;11.106;2022-08-06T09:52:12;24.00;44.40
46356;DHT22;32066;49.474;11.106;2022-08-06T09:54:40;24.10;42.10
46356;DHT22;32066;49.474;11.106;2022-08-06T09:57:07;24.10;43.10
46356;DHT22;32066;49.474;11.106;2022-08-06T09:59:45;24.20;43.30
46356;DHT22;32066;49.474;11.106;2022-08-06T10:02:13;24.40;44.00
46356;DHT22;32066;49.474;11.106;2022-08-06T10:04:41;24.40;42.60
46356;DHT22;32066;49.474;11.106;2022-08-06T10:07:08;24.70;42.80
46356;DHT22;32066;49.474;11.106;2022-08-06T10:09:35;24.80;41.20
46356;DHT22;32066;49.474;11.106;2022-08-06T10:12:16;24.40;42.20
46356;DHT22;32066;49.474;11.106;2022-08-06T10:14:43;24.30;42.30
46356;DHT22;32066;49.474;11.106;2022-08-06T10:17:12;24.40;43.30
46356;DHT22;32066;49.474;11.106;2022-08-06T10:19:40;24.50;41.90
46356;DHT22;32066;49.474;11.106;2022-08-06T10:22:08;24.60;41.80
46356;DHT22;32066;49.474;11.106;2022-08-06T10:24:39;24.70;41.00
46356;DHT22;32066;49.474;11.106;2022-08-06T10:27:08;24.70;41.20
46356;DHT22;32066;49.474;11.106;2022-08-06T10:29:41;24.80;40.90
46356;DHT22;32066;49.474;11.106;2022-08-06T10:32:11;24.90;40.80
46356;DHT22;32066;49.474;11.106;2022-08-06T10:34:41;24.90;42.60
46356;DHT22;32066;49.474;11.106;2022-08-06T10:37:10;24.80;40.40
46356;DHT22;32066;49.474;11.106;2022-08-06T10:39:49;24.90;41.10
46356;DHT22;32066;49.474;11.106;2022-08-06T10:42:18;24.90;40.20
46356;DHT22;32066;49.474;11.106;2022-08-06T10:44:48;25.10;40.00
46356;DHT22;32066;49.474;11.106;2022-08-06T10:47:15;25.00;39.00
46356;DHT22;32066;49.474;11.106;2022-08-06T10:49:42;25.20;40.90
46356;DHT22;32066;49.474;11.106;2022-08-06T10:52:10;25.20;40.30
46356;DHT22;32066;49.474;11.106;2022-08-06T10:54:39;25.20;41.00
46356;DHT22;32066;49.474;11.106;2022-08-06T10:57:07;25.40;40.60
46356;DHT22;32066;49.474;11.106;2022-08-06T10:59:34;25.10;39.10
46356;DHT22;32066;49.474;11.106;2022-08-06T11:02:08;24.70;37.90
46356;DHT22;32066;49.474;11.106;2022-08-06T11:04:43;24.70;41.00
46356;DHT22;32066;49.474;11.106;2022-08-06T11:07:48;25.00;39.70
46356;DHT22;32066;49.474;11.106;2022-08-06T11:10:40;25.20;38.20
46356;DHT22;32066;49.474;11.106;2022-08-06T11:13:17;25.40;38.60
46356;DHT22;32066;49.474;11.106;2022-08-06T11:15:45;25.40;38.30
46356;DHT22;32066;49.474;11.106;2022-08-06T11:18:14;25.20;39.00
46356;DHT22;32066;49.474;11.106;2022-08-06T11:20:43;25.40;39.70
46356;DHT22;32066;49.474;11.106;2022-08-06T11:23:28;25.60;39.70
46356;DHT22;32066;49.474;11.106;2022-08-06T11:25:56;25.80;38.10
46356;DHT22;32066;49.474;11.106;2022-08-06T11:28:58;25.70;37.70
46356;DHT22;32066;49.474;11.106;2022-08-06T11:31:31;25.70;37.20
46356;DHT22;32066;49.474;11.106;2022-08-06T11:34:02;25.90;37.40
46356;DHT22;32066;49.474;11.106;2022-08-06T11:36:43;26.10;37.10
46356;DHT22;32066;49.474;11.106;2022-08-06T11:39:10;26.10;38.60
46356;DHT22;32066;49.474;11.106;2022-08-06T11:41:45;26.10;36.50
46356;DHT22;32066;49.474;11.106;2022-08-06T11:44:13;26.10;36.90
46356;DHT22;32066;49.474;11.106;2022-08-06T11:46:43;26.10;36.40
46356;DHT22;32066;49.474;11.106;2022-08-06T11:49:14;26.20;36.00
46356;DHT22;32066;49.474;11.106;2022-08-06T11:51:42;26.30;35.70
46356;DHT22;32066;49.474;11.106;2022-08-06T11:54:11;26.30;36.30
46356;DHT22;32066;49.474;11.106;2022-08-06T11:57:18;26.50;35.80
46356;DHT22;32066;49.474;11.106;2022-08-06T12:02:55;26.20;36.60
46356;DHT22;32066;49.474;11.106;2022-08-06T12:05:41;26.20;35.60
46356;DHT22;32066;49.474;11.106;2022-08-06T12:08:19;26.30;36.30
46356;DHT22;32066;49.474;11.106;2022-08-06T12:13:53;26.80;34.10
46356;DHT22;32066;49.474;11.106;2022-08-06T12:16:37;26.90;33.70
46356;DHT22;32066;49.474;11.106;2022-08-06T12:19:12;26.90;33.90
46356;DHT22;32066;49.474;11.106;2022-08-06T12:21:44;27.20;34.20
46356;DHT22;32066;49.474;11.106;2022-08-06T12:24:22;27.30;34.40
46356;DHT22;32066;49.474;11.106;2022-08-06T12:26:49;27.30;33.50
46356;DHT22;32066;49.474;11.106;2022-08-06T12:29:16;27.40;34.30
46356;DHT22;32066;49.474;11.106;2022-08-06T12:31:43;27.50;32.90
46356;DHT22;32066;49.474;11.106;2022-08-06T12:34:23;27.50;33.50
46356;DHT22;32066;49.474;11.106;2022-08-06T12:36:51;27.40;33.00
46356;DHT22;32066;49.474;11.106;2022-08-06T12:39:18;27.30;32.90
46356;DHT22;32066;49.474;11.106;2022-08-06T12:41:45;27.40;33.50
46356;DHT22;32066;49.474;11.106;2022-08-06T12:44:12;27.30;33.00
46356;DHT22;32066;49.474;11.106;2022-08-06T12:46:40;27.40;32.70
46356;DHT22;32066;49.474;11.106;2022-08-06T12:49:07;27.60;32.90
46356;DHT22;32066;49.474;11.106;2022-08-06T12:51:35;27.60;33.00
46356;DHT22;32066;49.474;11.106;2022-08-06T12:54:06;27.90;32.40
46356;DHT22;32066;49.474;11.106;2022-08-06T12:56:36;27.80;31.50
46356;DHT22;32066;49.474;11.106;2022-08-06T12:59:07;27.80;32.00
46356;DHT22;32066;49.474;11.106;2022-08-06T13:01:36;27.70;32.10
46356;DHT22;32066;49.474;11.106;2022-08-06T13:04:06;27.70;32.90
46356;DHT22;32066;49.474;11.106;2022-08-06T13:06:36;27.80;33.40
46356;DHT22;32066;49.474;11.106;2022-08-06T13:09:05;27.70;33.10
46356;DHT22;32066;49.474;11.106;2022-08-06T13:11:33;27.70;33.20
46356;DHT22;32066;49.474;11.106;2022-08-06T13:14:08;27.70;32.10
46356;DHT22;32066;49.474;11.106;2022-08-06T13:16:43;28.00;32.10
46356;DHT22;32066;49.474;11.106;2022-08-06T13:19:11;27.90;31.60
46356;DHT22;32066;49.474;11.106;2022-08-06T13:21:38;27.90;31.70
46356;DHT22;32066;49.474;11.106;2022-08-06T13:24:08;27.80;32.20
46356;DHT22;32066;49.474;11.106;2022-08-06T13:26:47;27.80;32.80
46356;DHT22;32066;49.474;11.106;2022-08-06T13:29:17;28.00;31.90
46356;DHT22;32066;49.474;11.106;2022-08-06T13:31:46;27.80;31.20
46356;DHT22;32066;49.474;11.106;2022-08-06T13:34:14;27.80;30.70
46356;DHT22;32066;49.474;11.106;2022-08-06T13:36:44;27.90;30.50
46356;DHT22;32066;49.474;11.106;2022-08-06T13:39:24;28.10;30.40
46356;DHT22;32066;49.474;11.106;2022-08-06T13:42:03;28.20;30.80
46356;DHT22;32066;49.474;11.106;2022-08-06T13:44:32;28.40;31.00
46356;DHT22;32066;49.474;11.106;2022-08-06T13:47:00;28.50;30.50
46356;DHT22;32066;49.474;11.106;2022-08-06T13:49:27;28.80;31.20
46356;DHT22;32066;49.474;11.106;2022-08-06T13:51:54;28.80;31.90
46356;DHT22;32066;49.474;11.106;2022-08-06T13:54:24;28.80;29.80
46356;DHT22;32066;49.474;11.106;2022-08-06T13:56:54;28.50;30.70
46356;DHT22;32066;49.474;11.106;2022-08-06T13:59:23;28.50;30.30
46356;DHT22;32066;49.474;11.106;2022-08-06T14:01:51;28.80;30.30
46356;DHT22;32066;49.474;11.106;2022-08-06T14:04:20;28.90;29.90
46356;DHT22;32066;49.474;11.106;2022-08-06T14:06:49;28.80;29.60
46356;DHT22;32066;49.474;11.106;2022-08-06T14:09:19;28.80;30.10
46356;DHT22;32066;49.474;11.106;2022-08-06T14:11:51;29.00;29.90
46356;DHT22;32066;49.474;11.106;2022-08-06T14:14:19;29.20;30.00
46356;DHT22;32066;49.474;11.106;2022-08-06T14:16:46;29.50;30.00
46356;DHT22;32066;49.474;11.106;2022-08-06T14:19:13;29.40;30.00
46356;DHT22;32066;49.474;11.106;2022-08-06T14:21:39;29.40;29.90
46356;DHT22;32066;49.474;11.106;2022-08-06T14:24:06;29.30;29.80
46356;DHT22;32066;49.474;11.106;2022-08-06T14:26:33;29.50;29.70
46356;DHT22;32066;49.474;11.106;2022-08-06T14:29:04;29.60;29.40
46356;DHT22;32066;49.474;11.106;2022-08-06T14:31:31;29.30;29.60
46356;DHT22;32066;49.474;11.106;2022-08-06T14:33:58;29.30;29.80
46356;DHT22;32066;49.474;11.106;2022-08-06T14:36:26;29.30;29.60
46356;DHT22;32066;49.474;11.106;2022-08-06T14:38:53;29.60;29.60
46356;DHT22;32066;49.474;11.106;2022-08-06T14:41:20;29.60;29.30
46356;DHT22;32066;49.474;11.106;2022-08-06T14:44:06;29.70;29.20
46356;DHT22;32066;49.474;11.106;2022-08-06T14:46:51;29.80;29.30
46356;DHT22;32066;49.474;11.106;2022-08-06T14:49:18;29.90;28.80
46356;DHT22;32066;49.474;11.106;2022-08-06T14:51:45;29.90;28.90
46356;DHT22;32066;49.474;11.106;2022-08-06T14:54:12;30.20;28.60
46356;DHT22;32066;49.474;11.106;2022-08-06T14:56:39;30.30;28.60
46356;DHT22;32066;49.474;11.106;2022-08-06T14:59:08;30.40;28.50
46356;DHT22;32066;49.474;11.106;2022-08-06T15:01:35;30.40;29.00
46356;DHT22;32066;49.474;11.106;2022-08-06T15:04:02;30.40;28.50
46356;DHT22;32066;49.474;11.106;2022-08-06T15:06:30;30.30;28.50
46356;DHT22;32066;49.474;11.106;2022-08-06T15:08:57;30.10;28.40
46356;DHT22;32066;49.474;11.106;2022-08-06T15:11:24;29.70;28.70
46356;DHT22;32066;49.474;11.106;2022-08-06T15:13:51;30.00;28.90
46356;DHT22;32066;49.474;11.106;2022-08-06T15:16:19;30.20;28.70
46356;DHT22;32066;49.474;11.106;2022-08-06T15:18:46;30.30;28.50
46356;DHT22;32066;49.474;11.106;2022-08-06T15:21:13;30.40;28.50
46356;DHT22;32066;49.474;11.106;2022-08-06T15:23:40;30.30;28.50
46356;DHT22;32066;49.474;11.106;2022-08-06T15:26:09;30.30;28.30
46356;DHT22;32066;49.474;11.106;2022-08-06T15:28:36;30.20;27.80
46356;DHT22;32066;49.474;11.106;2022-08-06T15:31:03;30.20;28.00
46356;DHT22;32066;49.474;11.106;2022-08-06T15:33:32;30.30;27.80
46356;DHT22;32066;49.474;11.106;2022-08-06T15:35:59;29.90;27.60
46356;DHT22;32066;49.474;11.106;2022-08-06T15:38:26;30.10;27.40
46356;DHT22;32066;49.474;11.106;2022-08-06T15:40:54;30.30;26.80
46356;DHT22;32066;49.474;11.106;2022-08-06T15:43:21;30.30;26.90
46356;DHT22;32066;49.474;11.106;2022-08-06T15:45:50;30.30;27.10
46356;DHT22;32066;49.474;11.106;2022-08-06T15:48:17;30.40;27.20
46356;DHT22;32066;49.474;11.106;2022-08-06T15:50:47;30.50;26.80
46356;DHT22;32066;49.474;11.106;2022-08-06T15:53:14;30.00;26.90
46356;DHT22;32066;49.474;11.106;2022-08-06T15:55:41;29.60;27.10
46356;DHT22;32066;49.474;11.106;2022-08-06T15:58:08;29.70;26.70
46356;DHT22;32066;49.474;11.106;2022-08-06T16:00:38;29.80;26.60
46356;DHT22;32066;49.474;11.106;2022-08-06T16:03:07;30.00;26.80
46356;DHT22;32066;49.474;11.106;2022-08-06T16:05:36;30.20;26.60
46356;DHT22;32066;49.474;11.106;2022-08-06T16:08:05;30.30;26.10
46356;DHT22;32066;49.474;11.106;2022-08-06T16:10:33;30.40;26.30
46356;DHT22;32066;49.474;11.106;2022-08-06T16:13:01;30.60;26.20
46356;DHT22;32066;49.474;11.106;2022-08-06T16:15:28;30.30;26.50
46356;DHT22;32066;49.474;11.106;2022-08-06T16:17:54;30.30;26.50
46356;DHT22;32066;49.474;11.106;2022-08-06T16:20:21;30.00;26.70
46356;DHT22;32066;49.474;11.106;2022-08-06T16:22:49;30.10;26.70
46356;DHT22;32066;49.474;11.106;2022-08-06T16:25:17;30.20;26.50
46356;DHT22;32066;49.474;11.106;2022-08-06T16:27:44;30.40;26.40
46356;DHT22;32066;49.474;11.106;2022-08-06T16:30:11;30.50;26.50
46356;DHT22;32066;49.474;11.106;2022-08-06T16:32:39;30.60;26.50
46356;DHT22;32066;49.474;11.106;2022-08-06T16:35:09;30.50;26.50
46356;DHT22;32066;49.474;11.106;2022-08-06T16:37:36;29.90;26.90
46356;DHT22;32066;49.474;11.106;2022-08-06T16:40:03;29.90;26.70
46356;DHT22;32066;49.474;11.106;2022-08-06T16:42:32;30.00;26.80
46356;DHT22;32066;49.474;11.106;2022-08-06T16:44:59;29.90;26.80
46356;DHT22;32066;49.474;11.106;2022-08-06T16:47:26;30.00;26.40
46356;DHT22;32066;49.474;11.106;2022-08-06T16:49:54;30.00;26.50
46356;DHT22;32066;49.474;11.106;2022-08-06T16:52:21;30.10;26.70
46356;DHT22;32066;49.474;11.106;2022-08-06T16:54:48;30.10;26.50
46356;DHT22;32066;49.474;11.106;2022-08-06T16:57:15;30.10;26.70
46356;DHT22;32066;49.474;11.106;2022-08-06T16:59:43;30.00;26.90
46356;DHT22;32066;49.474;11.106;2022-08-06T17:02:10;30.10;27.10
46356;DHT22;32066;49.474;11.106;2022-08-06T17:05:10;30.20;27.20
46356;DHT22;32066;49.474;11.106;2022-08-06T17:07:38;30.30;27.50
46356;DHT22;32066;49.474;11.106;2022-08-06T17:10:08;29.90;27.10
46356;DHT22;32066;49.474;11.106;2022-08-06T17:12:35;30.10;26.80
46356;DHT22;32066;49.474;11.106;2022-08-06T17:15:05;30.10;27.10
46356;DHT22;32066;49.474;11.106;2022-08-06T17:17:32;29.80;27.10
46356;DHT22;32066;49.474;11.106;2022-08-06T17:20:04;29.40;27.30
46356;DHT22;32066;49.474;11.106;2022-08-06T17:22:31;29.60;27.30
46356;DHT22;32066;49.474;11.106;2022-08-06T17:24:58;29.40;27.50